Time;durP1;ratioP1;P1;durP2;ratioP2;P2;SDS_P1;SDS_P2;PMS_P1;PMS_P2;Temp;Humidity;BMP_temperature;BMP_pressure;BME280_temperature;BME280_humidity;BME280_pressure;Samples;Min_cycle;Max_cycle;Signal;HPM_P1;HPM_P2
2021/04/08 00:01:39;;;;;;;6.50;1.40;;;;;;;;;;4975823;28;20034;-82
2021/04/08 00:04:05;;;;;;;10.25;1.35;;;;;;;;;;4959021;28;20097;-82
2021/04/08 00:06:31;;;;;;;5.95;1.02;;;;;;;;;;4958730;28;20126;-80
2021/04/08 00:08:57;;;;;;;9.30;1.30;;;;;;;;;;4975856;28;20049;-82
2021/04/08 00:11:23;;;;;;;9.13;1.27;;;;;;;;;;4975765;28;20479;-82
2021/04/08 00:13:49;;;;;;;8.98;1.08;;;;;;;;;;4958667;28;20046;-83
2021/04/08 00:16:16;;;;;;;11.15;1.50;;;;;;;;;;4942474;28;20121;-82
2021/04/08 00:18:45;;;;;;;10.02;1.65;;;;;;;;;;4958689;28;20049;-82
2021/04/08 00:21:11;;;;;;;9.68;1.60;;;;;;;;;;4958535;28;20039;-82
2021/04/08 00:23:40;;;;;;;11.43;2.63;;;;;;;;;;4942605;28;20043;-81
2021/04/08 00:26:06;;;;;;;9.77;1.92;;;;;;;;;;4958282;28;20039;-81
2021/04/08 00:28:32;;;;;;;7.85;1.98;;;;;;;;;;4958369;28;20051;-81
2021/04/08 00:30:58;;;;;;;11.40;1.60;;;;;;;;;;4975429;28;20319;-81
2021/04/08 00:33:24;;;;;;;9.88;1.38;;;;;;;;;;4942332;28;20486;-81
2021/04/08 00:35:50;;;;;;;8.77;1.85;;;;;;;;;;4958291;28;20394;-82
2021/04/08 00:38:16;;;;;;;10.85;1.17;;;;;;;;;;4958188;28;20050;-81
2021/04/08 00:40:42;;;;;;;9.95;1.50;;;;;;;;;;4975257;28;20046;-82
2021/04/08 00:43:08;;;;;;;9.65;1.38;;;;;;;;;;4942110;28;20042;-81
2021/04/08 00:45:34;;;;;;;6.15;1.20;;;;;;;;;;4958061;28;20047;-82
2021/04/08 00:48:00;;;;;;;5.70;1.40;;;;;;;;;;4957934;28;20039;-81
2021/04/08 00:50:27;;;;;;;7.63;1.08;;;;;;;;;;4957797;28;20498;-82
2021/04/08 00:53:00;;;;;;;5.05;1.20;;;;;;;;;;4957999;28;20069;-83
2021/04/08 00:55:27;;;;;;;4.38;1.33;;;;;;;;;;4957921;28;20035;-82
2021/04/08 00:57:53;;;;;;;8.80;1.30;;;;;;;;;;4957655;28;20182;-82
2021/04/08 01:00:19;;;;;;;5.90;1.17;;;;;;;;;;4974944;28;20039;-81
2021/04/08 01:02:45;;;;;;;7.40;1.60;;;;;;;;;;4957618;28;20038;-82
2021/04/08 01:05:12;;;;;;;8.18;1.30;;;;;;;;;;4941985;28;20047;-81
2021/04/08 01:07:39;;;;;;;7.43;1.83;;;;;;;;;;4957538;28;20043;-82
2021/04/08 01:10:08;;;;;;;7.13;1.02;;;;;;;;;;4957748;28;20086;-81
2021/04/08 01:12:34;;;;;;;9.07;1.20;;;;;;;;;;4957220;28;20054;-81
2021/04/08 01:15:01;;;;;;;5.32;1.27;;;;;;;;;;4941512;28;20049;-81
2021/04/08 01:17:46;;;;;;;8.10;1.35;;;;;;;;;;4974556;28;20064;-81
2021/04/08 01:20:34;;;;;;;4.53;1.25;;;;;;;;;;4974661;28;20490;-81
2021/04/08 01:23:00;;;;;;;10.52;2.17;;;;;;;;;;4957277;28;20076;-81
2021/04/08 01:25:45;;;;;;;5.78;1.45;;;;;;;;;;4957286;28;20478;-82
2021/04/08 01:28:20;;;;;;;6.28;1.40;;;;;;;;;;4974457;28;20070;-80
2021/04/08 01:30:46;;;;;;;12.38;2.20;;;;;;;;;;4974434;28;20552;-81
2021/04/08 01:33:33;;;;;;;9.85;1.42;;;;;;;;;;4974151;28;20075;-81
2021/04/08 01:36:01;;;;;;;7.47;1.40;;;;;;;;;;4974067;28;20042;-81
2021/04/08 01:38:44;;;;;;;7.13;1.10;;;;;;;;;;4957115;28;20070;-81
2021/04/08 01:41:11;;;;;;;7.72;1.15;;;;;;;;;;4974374;28;20041;-81
2021/04/08 01:43:38;;;;;;;6.55;1.23;;;;;;;;;;4956806;28;20039;-82
2021/04/08 01:46:04;;;;;;;5.00;0.80;;;;;;;;;;4974113;28;20074;-82
2021/04/08 01:48:30;;;;;;;6.25;0.85;;;;;;;;;;4940968;28;20090;-82
2021/04/08 01:50:56;;;;;;;4.45;1.83;;;;;;;;;;4940976;28;20338;-81
2021/04/08 01:53:22;;;;;;;3.95;0.68;;;;;;;;;;4956893;28;20074;-82
2021/04/08 01:55:52;;;;;;;5.47;1.02;;;;;;;;;;4973878;28;20071;-81
2021/04/08 01:58:19;;;;;;;10.60;1.17;;;;;;;;;;4940703;28;20043;-82
2021/04/08 02:00:45;;;;;;;5.35;1.35;;;;;;;;;;4956816;28;20394;-81
2021/04/08 02:03:11;;;;;;;6.28;0.95;;;;;;;;;;4956771;28;20398;-81
2021/04/08 02:05:37;;;;;;;7.55;1.63;;;;;;;;;;4956714;28;20496;-82
2021/04/08 02:08:03;;;;;;;9.15;0.98;;;;;;;;;;4956682;28;20035;-81
2021/04/08 02:10:29;;;;;;;3.33;0.73;;;;;;;;;;4940678;28;20422;-82
2021/04/08 02:12:55;;;;;;;10.02;1.48;;;;;;;;;;4956473;28;20426;-82
2021/04/08 02:15:22;;;;;;;7.07;1.10;;;;;;;;;;4956489;28;20122;-81
2021/04/08 02:17:50;;;;;;;8.30;1.20;;;;;;;;;;4956459;28;20054;-82
2021/04/08 02:20:17;;;;;;;5.18;1.23;;;;;;;;;;4940192;28;20043;-81
2021/04/08 02:22:44;;;;;;;7.63;1.30;;;;;;;;;;4973550;28;20084;-81
2021/04/08 02:25:10;;;;;;;4.63;0.82;;;;;;;;;;4940634;28;20055;-81
2021/04/08 02:27:37;;;;;;;5.70;0.95;;;;;;;;;;4966941;28;20138;-82
2021/04/08 02:30:05;;;;;;;8.73;1.00;;;;;;;;;;4956402;28;20070;-81
2021/04/08 02:32:31;;;;;;;8.40;1.02;;;;;;;;;;4973388;28;20122;-82
2021/04/08 02:34:57;;;;;;;5.60;1.00;;;;;;;;;;4973431;28;20046;-81
2021/04/08 02:37:23;;;;;;;6.05;1.00;;;;;;;;;;4972150;28;20042;-82
2021/04/08 02:39:49;;;;;;;5.80;1.25;;;;;;;;;;4972135;28;20038;-82
2021/04/08 02:42:15;;;;;;;5.65;0.73;;;;;;;;;;4973382;28;20449;-82
2021/04/08 02:44:41;;;;;;;7.47;0.95;;;;;;;;;;4973400;28;20054;-81
2021/04/08 02:47:07;;;;;;;3.90;0.68;;;;;;;;;;4972080;28;20039;-82
2021/04/08 02:49:33;;;;;;;3.22;0.73;;;;;;;;;;4956112;28;20118;-82
2021/04/08 02:52:01;;;;;;;4.00;0.80;;;;;;;;;;4972180;28;20043;-81
2021/04/08 02:54:32;;;;;;;4.15;1.33;;;;;;;;;;4956048;28;20409;-82
2021/04/08 02:56:58;;;;;;;6.75;0.95;;;;;;;;;;4971947;28;20038;-82
2021/04/08 02:59:26;;;;;;;3.10;0.60;;;;;;;;;;4955993;28;20177;-82
2021/04/08 03:02:18;;;;;;;6.97;0.80;;;;;;;;;;4971954;28;20045;-82
2021/04/08 03:04:54;;;;;;;5.60;0.65;;;;;;;;;;4971363;28;20046;-81
2021/04/08 03:07:24;;;;;;;6.50;0.90;;;;;;;;;;4971973;28;20050;-81
2021/04/08 03:09:53;;;;;;;7.22;0.90;;;;;;;;;;4972133;28;20047;-82
2021/04/08 03:12:19;;;;;;;6.00;1.00;;;;;;;;;;4955987;28;20047;-81
2021/04/08 03:14:47;;;;;;;3.92;0.82;;;;;;;;;;4972136;28;20069;-82
2021/04/08 03:17:17;;;;;;;3.92;1.88;;;;;;;;;;4955946;28;20442;-81
2021/04/08 03:19:43;;;;;;;4.32;0.82;;;;;;;;;;4955821;28;20039;-81
2021/04/08 03:22:10;;;;;;;5.38;1.08;;;;;;;;;;4971730;28;20478;-80
2021/04/08 03:24:37;;;;;;;4.57;0.90;;;;;;;;;;4971731;28;20038;-81
2021/04/08 03:27:03;;;;;;;3.42;0.93;;;;;;;;;;4971442;28;20143;-81
2021/04/08 03:29:29;;;;;;;7.25;0.80;;;;;;;;;;4971686;28;20109;-80
2021/04/08 03:31:55;;;;;;;3.53;0.70;;;;;;;;;;4974157;28;20049;-80
2021/04/08 03:34:22;;;;;;;2.50;0.50;;;;;;;;;;4975342;28;20047;-80
2021/04/08 03:36:48;;;;;;;3.78;0.80;;;;;;;;;;4976528;28;20039;-81
2021/04/08 03:39:14;;;;;;;5.30;0.90;;;;;;;;;;4976413;28;20413;-80
2021/04/08 03:41:40;;;;;;;2.78;0.75;;;;;;;;;;4975193;28;20105;-80
2021/04/08 03:44:07;;;;;;;5.13;0.90;;;;;;;;;;4959274;28;20039;-80
2021/04/08 03:46:33;;;;;;;4.82;0.65;;;;;;;;;;4975032;28;20046;-81
2021/04/08 03:48:59;;;;;;;6.03;0.80;;;;;;;;;;4959157;28;20034;-80
2021/04/08 03:51:25;;;;;;;3.40;0.60;;;;;;;;;;4975072;28;20039;-80
2021/04/08 03:53:54;;;;;;;6.93;0.80;;;;;;;;;;4975001;28;20077;-81
2021/04/08 03:56:20;;;;;;;6.63;0.88;;;;;;;;;;4959159;28;20045;-81
2021/04/08 03:58:46;;;;;;;7.05;1.00;;;;;;;;;;4975077;28;20042;-81
2021/04/08 04:01:12;;;;;;;5.85;1.00;;;;;;;;;;4975952;28;20039;-81
2021/04/08 04:03:38;;;;;;;7.85;1.00;;;;;;;;;;4974811;28;20050;-82
2021/04/08 04:06:08;;;;;;;3.95;0.60;;;;;;;;;;4975881;28;20039;-81
2021/04/08 04:08:34;;;;;;;5.00;1.33;;;;;;;;;;4958835;28;20125;-81
2021/04/08 04:11:00;;;;;;;6.13;0.80;;;;;;;;;;4975911;28;20105;-81
2021/04/08 04:13:26;;;;;;;2.47;0.70;;;;;;;;;;4974730;28;20490;-81
2021/04/08 04:15:52;;;;;;;8.40;1.08;;;;;;;;;;4958477;28;20039;-81
2021/04/08 04:18:19;;;;;;;2.63;0.90;;;;;;;;;;4974767;28;20096;-82
2021/04/08 04:20:45;;;;;;;5.35;0.70;;;;;;;;;;4975674;28;20067;-82
2021/04/08 04:23:12;;;;;;;7.45;1.02;;;;;;;;;;4974537;28;20062;-82
2021/04/08 04:25:38;;;;;;;4.63;0.77;;;;;;;;;;4974495;28;20102;-81
2021/04/08 04:28:04;;;;;;;7.20;1.10;;;;;;;;;;4974282;28;20050;-81
2021/04/08 04:30:30;;;;;;;5.65;1.10;;;;;;;;;;4974312;28;20042;-81
2021/04/08 04:32:57;;;;;;;4.53;0.90;;;;;;;;;;4974372;28;20457;-81
2021/04/08 04:35:25;;;;;;;5.75;0.82;;;;;;;;;;4974421;28;20427;-80
2021/04/08 04:37:51;;;;;;;6.15;0.90;;;;;;;;;;4975552;28;20049;-81
2021/04/08 04:40:17;;;;;;;3.47;0.80;;;;;;;;;;4974289;28;20031;-81
2021/04/08 04:42:43;;;;;;;6.63;1.10;;;;;;;;;;4973735;28;20039;-83
2021/04/08 04:45:11;;;;;;;5.05;0.90;;;;;;;;;;4974142;28;20089;-84
2021/04/08 04:47:40;;;;;;;3.35;0.80;;;;;;;;;;4974046;28;20043;-82
2021/04/08 04:50:08;;;;;;;3.90;0.80;;;;;;;;;;4973996;28;20482;-82
2021/04/08 04:52:34;;;;;;;4.75;0.85;;;;;;;;;;4973986;28;20074;-82
2021/04/08 04:55:00;;;;;;;5.03;0.77;;;;;;;;;;4975199;28;20402;-81
2021/04/08 04:57:26;;;;;;;6.68;0.82;;;;;;;;;;4974872;28;20097;-81
2021/04/08 04:59:52;;;;;;;7.13;0.90;;;;;;;;;;4973843;28;20174;-81
2021/04/08 05:02:19;;;;;;;9.93;1.40;;;;;;;;;;4973893;28;20047;-82
2021/04/08 05:04:45;;;;;;;4.28;0.93;;;;;;;;;;4957700;28;20046;-81
2021/04/08 05:07:11;;;;;;;2.40;0.80;;;;;;;;;;4973865;28;20043;-82
2021/04/08 05:09:37;;;;;;;8.48;1.00;;;;;;;;;;4973770;28;20398;-81
2021/04/08 05:12:03;;;;;;;3.97;0.80;;;;;;;;;;4974843;28;20560;-80
2021/04/08 05:14:29;;;;;;;4.50;0.93;;;;;;;;;;4974750;28;20042;-81
2021/04/08 05:16:55;;;;;;;8.27;1.25;;;;;;;;;;4974664;28;20093;-83
2021/04/08 05:19:21;;;;;;;6.13;1.20;;;;;;;;;;4973682;28;20034;-81
2021/04/08 05:21:51;;;;;;;9.43;1.10;;;;;;;;;;4973406;28;20505;-81
2021/04/08 05:24:17;;;;;;;2.45;0.75;;;;;;;;;;4973424;28;20081;-81
2021/04/08 05:26:43;;;;;;;5.85;1.00;;;;;;;;;;4973119;28;20054;-81
2021/04/08 05:29:09;;;;;;;3.53;0.95;;;;;;;;;;4973448;28;20045;-82
2021/04/08 05:31:36;;;;;;;10.30;1.23;;;;;;;;;;4974445;28;20062;-81
2021/04/08 05:34:02;;;;;;;3.30;0.90;;;;;;;;;;4973226;28;20038;-82
2021/04/08 05:36:28;;;;;;;4.03;1.10;;;;;;;;;;4973159;28;20039;-81
2021/04/08 05:38:54;;;;;;;4.53;1.95;;;;;;;;;;4973353;28;20038;-81
2021/04/08 05:41:20;;;;;;;5.35;0.98;;;;;;;;;;4973088;28;20186;-82
2021/04/08 05:43:46;;;;;;;4.75;1.35;;;;;;;;;;4973061;28;20439;-79
2021/04/08 05:46:12;;;;;;;6.05;1.15;;;;;;;;;;4972948;28;20070;-80
2021/04/08 05:48:38;;;;;;;5.07;1.10;;;;;;;;;;4973033;28;20094;-80
2021/04/08 05:51:05;;;;;;;7.03;1.20;;;;;;;;;;4972904;28;20038;-80
2021/04/08 05:53:31;;;;;;;7.25;1.75;;;;;;;;;;4972232;28;20104;-80
2021/04/08 05:55:57;;;;;;;11.02;2.85;;;;;;;;;;4972795;28;20170;-81
2021/04/08 05:58:23;;;;;;;6.78;1.40;;;;;;;;;;4972897;28;20058;-80
2021/04/08 06:00:49;;;;;;;4.38;0.88;;;;;;;;;;4973934;28;20039;-79
2021/04/08 06:03:15;;;;;;;11.98;3.33;;;;;;;;;;4973781;28;20046;-81
2021/04/08 06:05:41;;;;;;;6.80;1.35;;;;;;;;;;4972814;28;20039;-80
2021/04/08 06:08:07;;;;;;;4.68;1.27;;;;;;;;;;4972670;28;20497;-80
2021/04/08 06:10:33;;;;;;;5.60;2.67;;;;;;;;;;4973948;28;20047;-80
2021/04/08 06:13:00;;;;;;;7.13;2.25;;;;;;;;;;4972594;28;20043;-80
2021/04/08 06:15:29;;;;;;;4.25;1.05;;;;;;;;;;4973874;28;20451;-81
2021/04/08 06:17:55;;;;;;;3.60;1.25;;;;;;;;;;4972696;28;20041;-80
2021/04/08 06:20:21;;;;;;;5.45;1.17;;;;;;;;;;4973694;28;20390;-81
2021/04/08 06:22:50;;;;;;;5.40;1.20;;;;;;;;;;4956442;28;20047;-83
2021/04/08 06:25:17;;;;;;;5.70;1.17;;;;;;;;;;4972413;28;20117;-80
2021/04/08 06:27:43;;;;;;;6.40;1.50;;;;;;;;;;4972179;28;20142;-81
2021/04/08 06:30:11;;;;;;;8.68;1.75;;;;;;;;;;4956815;28;20478;-81
2021/04/08 06:32:38;;;;;;;4.18;0.93;;;;;;;;;;4972321;28;20414;-80
2021/04/08 06:35:05;;;;;;;5.38;1.33;;;;;;;;;;4973495;28;20043;-80
2021/04/08 06:37:31;;;;;;;9.23;1.30;;;;;;;;;;4973185;28;20109;-79
2021/04/08 06:39:58;;;;;;;3.13;1.10;;;;;;;;;;4972431;28;20406;-80
2021/04/08 06:42:24;;;;;;;7.78;1.10;;;;;;;;;;4973239;28;20478;-80
2021/04/08 06:44:50;;;;;;;11.15;2.10;;;;;;;;;;4972223;28;20039;-80
2021/04/08 06:47:24;;;;;;;6.85;1.35;;;;;;;;;;4972075;28;20050;-78
2021/04/08 06:49:52;;;;;;;3.05;1.20;;;;;;;;;;4972149;28;20046;-81
2021/04/08 06:52:18;;;;;;;8.18;1.35;;;;;;;;;;4956480;28;20059;-78
2021/04/08 06:54:45;;;;;;;4.15;1.25;;;;;;;;;;4956288;28;20101;-80
2021/04/08 06:57:11;;;;;;;7.38;1.50;;;;;;;;;;4972078;28;20437;-79
2021/04/08 06:59:38;;;;;;;5.95;1.10;;;;;;;;;;4973230;28;20125;-80
2021/04/08 07:02:04;;;;;;;5.35;1.02;;;;;;;;;;4971966;28;20045;-80
2021/04/08 07:04:35;;;;;;;9.70;1.85;;;;;;;;;;4972528;28;20086;-80
2021/04/08 07:07:01;;;;;;;4.07;1.58;;;;;;;;;;4975878;28;20481;-81
2021/04/08 07:09:27;;;;;;;6.50;1.40;;;;;;;;;;4977133;28;20047;-81
2021/04/08 07:11:53;;;;;;;5.50;0.90;;;;;;;;;;4975923;28;20035;-82
2021/04/08 07:14:19;;;;;;;5.63;0.80;;;;;;;;;;4975836;28;20121;-82
2021/04/08 07:16:48;;;;;;;2.42;0.93;;;;;;;;;;4975819;28;20054;-81
2021/04/08 07:19:14;;;;;;;2.92;0.90;;;;;;;;;;4959678;28;20053;-81
2021/04/08 07:21:41;;;;;;;4.13;1.10;;;;;;;;;;4975708;28;20586;-81
2021/04/08 07:24:13;;;;;;;3.03;0.90;;;;;;;;;;4976759;28;20075;-81
2021/04/08 07:26:40;;;;;;;;;;;;;;;;;;4975209;28;20059;-81
2021/04/08 07:29:06;;;;;;;5.28;0.82;;;;;;;;;;4962648;28;19941;-81
2021/04/08 07:31:33;;;;;;;6.15;1.33;;;;;;;;;;4955207;28;20490;-81
2021/04/08 07:33:59;;;;;;;8.13;1.10;;;;;;;;;;4974602;28;20065;-81
2021/04/08 07:36:30;;;;;;;3.50;0.70;;;;;;;;;;4976060;28;20109;-81
2021/04/08 07:38:56;;;;;;;5.60;1.13;;;;;;;;;;4976450;28;20385;-81
2021/04/08 07:41:26;;;;;;;3.70;1.27;;;;;;;;;;4973728;28;20402;-81
2021/04/08 07:44:05;;;;;;;5.35;1.15;;;;;;;;;;4955900;28;20052;-81
2021/04/08 07:46:33;;;;;;;4.63;1.63;;;;;;;;;;4956940;28;20061;-81
2021/04/08 07:48:59;;;;;;;5.18;1.83;;;;;;;;;;4955968;29;20545;-81
2021/04/08 07:51:28;;;;;;;3.97;1.33;;;;;;;;;;4955809;29;20109;-81
2021/04/08 07:54:15;;;;;;;4.50;1.48;;;;;;;;;;4955744;29;20243;-81
2021/04/08 07:56:41;;;;;;;5.38;1.20;;;;;;;;;;4956523;29;20077;-80
2021/04/08 07:59:20;;;;;;;3.78;1.63;;;;;;;;;;4956966;29;20047;-79
2021/04/08 08:01:46;;;;;;;5.32;1.08;;;;;;;;;;4956617;29;20097;-80
2021/04/08 08:04:23;;;;;;;4.65;1.42;;;;;;;;;;4955508;29;20091;-81
2021/04/08 08:06:49;;;;;;;8.23;1.42;;;;;;;;;;4955470;29;20098;-81
2021/04/08 08:09:18;;;;;;;6.10;1.50;;;;;;;;;;4955397;29;20066;-81
2021/04/08 08:11:44;;;;;;;5.97;1.20;;;;;;;;;;4955264;29;20036;-82
2021/04/08 08:14:10;;;;;;;9.45;2.15;;;;;;;;;;4955269;29;20050;-80
2021/04/08 08:16:37;;;;;;;5.50;1.33;;;;;;;;;;4954426;28;20043;-81
2021/04/08 08:19:04;;;;;;;4.95;1.10;;;;;;;;;;4956535;29;20082;-81
2021/04/08 08:21:37;;;;;;;5.50;1.00;;;;;;;;;;4956204;29;20039;-81
2021/04/08 08:24:09;;;;;;;3.80;0.85;;;;;;;;;;4939113;29;20372;-81
2021/04/08 08:26:36;;;;;;;;;;;;;;;;;;4942009;29;20054;-82
2021/04/08 08:29:12;;;;;;;4.72;1.30;;;;;;;;;;4956333;29;19970;-81
2021/04/08 08:31:58;;;;;;;6.05;1.77;;;;;;;;;;4956124;28;20054;-81
2021/04/08 08:34:25;;;;;;;3.25;1.52;;;;;;;;;;4956162;28;20050;-81
2021/04/08 08:36:58;;;;;;;7.32;1.67;;;;;;;;;;4956048;29;20443;-79
2021/04/08 08:39:25;;;;;;;4.55;1.27;;;;;;;;;;4956101;28;20061;-80
2021/04/08 08:41:51;;;;;;;7.57;1.65;;;;;;;;;;4964250;28;20042;-80
2021/04/08 08:44:17;;;;;;;4.22;1.40;;;;;;;;;;4954577;28;20062;-80
2021/04/08 08:46:44;;;;;;;5.30;1.58;;;;;;;;;;4970498;28;20090;-80
2021/04/08 08:49:12;;;;;;;5.03;1.30;;;;;;;;;;4955900;29;20047;-80
2021/04/08 08:51:38;;;;;;;5.60;1.25;;;;;;;;;;4955559;28;20102;-81
2021/04/08 08:54:04;;;;;;;4.85;1.33;;;;;;;;;;4970025;28;20050;-81
2021/04/08 08:56:31;;;;;;;5.20;1.17;;;;;;;;;;4970643;28;20070;-81
2021/04/08 08:58:57;;;;;;;2.42;1.00;;;;;;;;;;4970575;28;20039;-81
2021/04/08 09:01:23;;;;;;;8.27;1.45;;;;;;;;;;4970550;28;20039;-81
2021/04/08 09:03:50;;;;;;;5.75;1.33;;;;;;;;;;4955628;29;20046;-81
2021/04/08 09:06:16;;;;;;;3.30;1.25;;;;;;;;;;4970277;28;20390;-80
2021/04/08 09:08:48;;;;;;;6.88;1.23;;;;;;;;;;4954356;29;20118;-81
2021/04/08 09:11:18;;;;;;;4.43;1.73;;;;;;;;;;4969634;28;20039;-81
2021/04/08 09:13:44;;;;;;;5.53;1.50;;;;;;;;;;4955382;28;20074;-80
2021/04/08 09:16:14;;;;;;;3.88;1.25;;;;;;;;;;4955333;29;20118;-78
2021/04/08 09:18:40;;;;;;;4.85;1.38;;;;;;;;;;4954129;29;20182;-81
2021/04/08 09:21:06;;;;;;;5.28;1.60;;;;;;;;;;4955332;29;20067;-81
2021/04/08 09:23:32;;;;;;;7.15;1.98;;;;;;;;;;4970042;28;20031;-81
2021/04/08 09:25:58;;;;;;;5.60;1.90;;;;;;;;;;4969693;28;20059;-82
2021/04/08 09:28:31;;;;;;;7.90;1.88;;;;;;;;;;4948510;28;20130;-81
2021/04/08 09:33:57;;;;;;;6.38;1.70;;;;;;;;;;4957266;28;20066;-80
2021/04/08 09:36:27;;;;;;;4.35;1.45;;;;;;;;;;4958070;28;20128;-81
2021/04/08 09:38:55;;;;;;;4.45;1.33;;;;;;;;;;4974226;28;20043;-82
2021/04/08 09:41:46;;;;;;;11.57;1.98;;;;;;;;;;4974223;28;20042;-82
2021/04/08 09:44:13;;;;;;;3.75;1.70;;;;;;;;;;4964442;28;20062;-83
2021/04/08 09:46:40;;;;;;;7.80;1.52;;;;;;;;;;4957053;28;20553;-83
2021/04/08 09:49:07;;;;;;;8.35;1.92;;;;;;;;;;4973913;28;20117;-80
2021/04/08 09:51:34;;;;;;;5.55;1.50;;;;;;;;;;4974188;28;20045;-81
2021/04/08 09:54:01;;;;;;;5.18;2.22;;;;;;;;;;4973747;28;20061;-80
2021/04/08 09:56:46;;;;;;;8.48;2.65;;;;;;;;;;4973835;28;20062;-80
2021/04/08 09:59:12;;;;;;;8.20;2.08;;;;;;;;;;4956609;28;20042;-79
2021/04/08 10:01:38;;;;;;;7.13;2.60;;;;;;;;;;4956573;28;20050;-79
2021/04/08 10:04:16;;;;;;;5.97;2.25;;;;;;;;;;4973845;28;20149;-79
2021/04/08 10:06:44;;;;;;;6.32;2.58;;;;;;;;;;4937887;29;20035;-81
2021/04/08 10:09:11;;;;;;;5.53;2.10;;;;;;;;;;4953445;28;20046;-81
2021/04/08 10:11:37;;;;;;;7.43;2.40;;;;;;;;;;4953484;29;20054;-81
2021/04/08 10:14:16;;;;;;;6.05;3.22;;;;;;;;;;4954495;29;20043;-81
2021/04/08 10:16:42;;;;;;;5.03;2.63;;;;;;;;;;4954405;29;20380;-81
2021/04/08 10:19:29;;;;;;;6.10;3.10;;;;;;;;;;4940446;29;20051;-81
2021/04/08 10:21:57;;;;;;;8.07;3.88;;;;;;;;;;4954365;29;20039;-82
2021/04/08 10:24:23;;;;;;;7.30;2.10;;;;;;;;;;4953374;28;20031;-81
2021/04/08 10:27:17;;;;;;;7.47;1.95;;;;;;;;;;4944656;29;20090;-80
2021/04/08 10:30:16;;;;;;;5.57;3.10;;;;;;;;;;4953708;29;20047;-80
2021/04/08 10:32:43;;;;;;;5.13;2.22;;;;;;;;;;4969151;28;20408;-82
2021/04/08 10:35:21;;;;;;;6.18;2.20;;;;;;;;;;4954136;28;20481;-81
2021/04/08 10:37:56;;;;;;;3.85;2.03;;;;;;;;;;4952994;28;20054;-82
2021/04/08 10:40:22;;;;;;;6.45;2.15;;;;;;;;;;4952844;28;20035;-82
2021/04/08 10:42:48;;;;;;;5.50;2.15;;;;;;;;;;4969010;28;20066;-81
2021/04/08 10:45:15;;;;;;;3.38;2.05;;;;;;;;;;4954195;29;20044;-81
2021/04/08 10:47:41;;;;;;;5.75;2.63;;;;;;;;;;4968800;28;20042;-82
2021/04/08 10:50:07;;;;;;;7.18;2.33;;;;;;;;;;4954261;29;20039;-82
2021/04/08 10:52:35;;;;;;;6.22;2.50;;;;;;;;;;4954203;29;20046;-82
2021/04/08 10:55:03;;;;;;;7.18;2.47;;;;;;;;;;4968987;28;20046;-82
2021/04/08 10:57:29;;;;;;;8.05;2.33;;;;;;;;;;4953976;29;20094;-83
2021/04/08 10:59:55;;;;;;;5.35;2.75;;;;;;;;;;4952691;29;20036;-81
2021/04/08 11:02:34;;;;;;;6.05;2.40;;;;;;;;;;4952845;29;20047;-81
2021/04/08 11:05:03;;;;;;;4.97;2.50;;;;;;;;;;4968812;28;20043;-81
2021/04/08 11:07:34;;;;;;;4.25;2.60;;;;;;;;;;4953973;28;20054;-81
2021/04/08 11:10:06;;;;;;;4.50;2.63;;;;;;;;;;4952674;29;20248;-81
2021/04/08 11:12:32;;;;;;;5.40;2.83;;;;;;;;;;4953686;29;20043;-81
2021/04/08 11:14:59;;;;;;;3.72;2.83;;;;;;;;;;4952577;29;20517;-82
2021/04/08 11:17:26;;;;;;;6.88;3.58;;;;;;;;;;4968470;28;20043;-81
2021/04/08 11:19:55;;;;;;;5.03;2.92;;;;;;;;;;4953778;29;20039;-82
2021/04/08 11:22:32;;;;;;;4.95;3.03;;;;;;;;;;4968104;28;20395;-81
2021/04/08 11:24:58;;;;;;;4.03;2.50;;;;;;;;;;4952475;29;20130;-82
2021/04/08 11:27:34;;;;;;;6.20;3.38;;;;;;;;;;4968307;28;20051;-81
2021/04/08 11:30:00;;;;;;;5.28;3.70;;;;;;;;;;4953697;28;20478;-82
2021/04/08 11:32:27;;;;;;;4.97;3.20;;;;;;;;;;4968498;28;20047;-82
2021/04/08 11:34:57;;;;;;;4.05;3.47;;;;;;;;;;4953555;29;20487;-82
2021/04/08 11:37:33;;;;;;;4.25;3.42;;;;;;;;;;4952134;29;20039;-82
2021/04/08 11:40:00;;;;;;;5.90;3.75;;;;;;;;;;4968288;28;20031;-81
2021/04/08 11:42:26;;;;;;;5.90;3.67;;;;;;;;;;4968268;28;20487;-84
2021/04/08 11:44:52;;;;;;;8.02;3.97;;;;;;;;;;4968202;28;20102;-84
2021/04/08 11:47:22;;;;;;;8.32;4.78;;;;;;;;;;4952179;29;20050;-83
2021/04/08 11:49:49;;;;;;;7.05;4.30;;;;;;;;;;4953435;29;20043;-82
2021/04/08 11:52:16;;;;;;;8.68;5.00;;;;;;;;;;4969606;28;20080;-83
2021/04/08 11:55:01;;;;;;;6.28;4.50;;;;;;;;;;4971463;28;20071;-82
2021/04/08 11:57:27;;;;;;;8.07;4.13;;;;;;;;;;4971614;28;20043;-82
2021/04/08 12:00:07;;;;;;;7.25;4.38;;;;;;;;;;4956708;29;20039;-83
2021/04/08 12:02:34;;;;;;;7.40;4.15;;;;;;;;;;4955377;29;20742;-83
2021/04/08 12:05:00;;;;;;;5.18;4.00;;;;;;;;;;4971582;28;20038;-82
2021/04/08 12:07:26;;;;;;;6.68;4.50;;;;;;;;;;4971443;28;20372;-83
2021/04/08 12:09:53;;;;;;;4.85;4.35;;;;;;;;;;4955459;29;20036;-82
2021/04/08 12:12:19;;;;;;;9.38;4.57;;;;;;;;;;4971310;28;20047;-83
2021/04/08 12:14:55;;;;;;;8.35;4.32;;;;;;;;;;4955192;29;20490;-82
2021/04/08 12:17:21;;;;;;;7.15;4.97;;;;;;;;;;4971138;28;20039;-82
2021/04/08 12:19:47;;;;;;;7.57;5.28;;;;;;;;;;4956433;29;20395;-82
2021/04/08 12:22:14;;;;;;;28.25;12.15;;;;;;;;;;4956432;29;20035;-83
2021/04/08 12:24:40;;;;;;;7.35;5.50;;;;;;;;;;4955311;29;20070;-83
2021/04/08 12:27:22;;;;;;;7.38;5.40;;;;;;;;;;4970846;28;20067;-83
2021/04/08 12:29:48;;;;;;;7.07;5.53;;;;;;;;;;4956251;29;20040;-83
2021/04/08 12:32:14;;;;;;;10.98;6.32;;;;;;;;;;4956340;29;20042;-83
2021/04/08 12:34:40;;;;;;;13.48;8.20;;;;;;;;;;4956245;29;20032;-83
2021/04/08 12:37:07;;;;;;;14.10;7.65;;;;;;;;;;4970873;28;20193;-83
2021/04/08 12:39:33;;;;;;;10.23;6.28;;;;;;;;;;4954831;29;20065;-83
2021/04/08 12:41:59;;;;;;;8.93;6.18;;;;;;;;;;4954630;29;20479;-83
2021/04/08 12:44:25;;;;;;;9.80;6.53;;;;;;;;;;4970800;28;20050;-83
2021/04/08 12:46:51;;;;;;;12.60;6.35;;;;;;;;;;4954672;29;20051;-84
2021/04/08 12:49:17;;;;;;;9.20;6.65;;;;;;;;;;4954808;29;20039;-83
2021/04/08 12:51:43;;;;;;;12.40;7.20;;;;;;;;;;4955870;29;20035;-81
2021/04/08 12:54:09;;;;;;;9.88;7.05;;;;;;;;;;4955623;29;20050;-81
2021/04/08 12:56:35;;;;;;;9.65;6.97;;;;;;;;;;4955363;29;20046;-82
2021/04/08 12:59:01;;;;;;;10.73;6.95;;;;;;;;;;4955620;29;20110;-81
2021/04/08 13:01:27;;;;;;;9.43;6.57;;;;;;;;;;4954302;29;20043;-82
2021/04/08 13:03:53;;;;;;;11.13;7.18;;;;;;;;;;4969971;28;20043;-81
2021/04/08 13:06:19;;;;;;;8.68;7.00;;;;;;;;;;4955396;29;20047;-81
2021/04/08 13:08:46;;;;;;;13.07;8.00;;;;;;;;;;4955522;29;20050;-81
2021/04/08 13:11:12;;;;;;;10.73;7.68;;;;;;;;;;4954224;29;20050;-81
2021/04/08 13:13:38;;;;;;;11.50;6.93;;;;;;;;;;4955309;29;20043;-81
2021/04/08 13:16:04;;;;;;;11.57;7.35;;;;;;;;;;4955281;29;20118;-81
2021/04/08 13:18:30;;;;;;;11.40;7.30;;;;;;;;;;4955073;29;20039;-81
2021/04/08 13:20:56;;;;;;;15.25;8.38;;;;;;;;;;4954108;29;20491;-82
2021/04/08 13:23:22;;;;;;;10.95;7.93;;;;;;;;;;4955349;29;20211;-81
2021/04/08 13:25:48;;;;;;;13.48;8.80;;;;;;;;;;4953844;29;20388;-82
2021/04/08 13:28:14;;;;;;;11.63;7.32;;;;;;;;;;4935169;28;20098;-82
2021/04/08 13:30:41;;;;;;;10.77;7.10;;;;;;;;;;4919211;29;20123;-82
2021/04/08 13:33:07;;;;;;;10.05;7.38;;;;;;;;;;4903656;29;20043;-82
2021/04/08 13:35:33;;;;;;;11.80;7.93;;;;;;;;;;4936045;29;20047;-82
2021/04/08 13:38:03;;;;;;;9.40;6.90;;;;;;;;;;4919066;29;20051;-82
2021/04/08 13:40:29;;;;;;;10.55;7.38;;;;;;;;;;4903750;29;20048;-84
2021/04/08 13:42:55;;;;;;;10.18;7.25;;;;;;;;;;4935856;29;20099;-83
2021/04/08 13:45:21;;;;;;;9.73;6.45;;;;;;;;;;4935919;29;20040;-82
2021/04/08 13:47:47;;;;;;;10.63;6.97;;;;;;;;;;4935894;29;20046;-83
2021/04/08 13:50:13;;;;;;;10.88;7.70;;;;;;;;;;4936032;29;20036;-82
2021/04/08 13:52:40;;;;;;;12.85;7.50;;;;;;;;;;4935682;29;20047;-82
2021/04/08 13:55:06;;;;;;;9.48;7.32;;;;;;;;;;4918728;29;20070;-82
2021/04/08 13:57:32;;;;;;;11.32;7.38;;;;;;;;;;4918721;29;20126;-82
2021/04/08 13:59:58;;;;;;;10.32;6.78;;;;;;;;;;4935576;29;20081;-82
2021/04/08 14:02:25;;;;;;;9.95;6.55;;;;;;;;;;4935570;29;20071;-82
2021/04/08 14:04:51;;;;;;;7.53;6.03;;;;;;;;;;4918620;29;20450;-81
2021/04/08 14:07:17;;;;;;;9.05;6.32;;;;;;;;;;4935580;29;20062;-81
2021/04/08 14:09:43;;;;;;;11.15;6.70;;;;;;;;;;4945129;29;20043;-81
2021/04/08 14:12:09;;;;;;;11.95;6.50;;;;;;;;;;4954561;29;20098;-82
2021/04/08 14:14:35;;;;;;;8.65;6.30;;;;;;;;;;4954107;28;20126;-82
2021/04/08 14:17:01;;;;;;;9.77;6.07;;;;;;;;;;4954231;29;20097;-82
2021/04/08 14:19:27;;;;;;;9.25;5.47;;;;;;;;;;4921555;29;20478;-83
2021/04/08 14:21:53;;;;;;;9.45;6.50;;;;;;;;;;4921502;29;20049;-81
2021/04/08 14:24:22;;;;;;;10.77;6.63;;;;;;;;;;4954471;29;20043;-82
2021/04/08 14:26:48;;;;;;;8.98;6.18;;;;;;;;;;4933178;28;20142;-82
2021/04/08 14:29:14;;;;;;;8.13;6.53;;;;;;;;;;4956589;28;20046;-83
2021/04/08 14:31:40;;;;;;;8.27;5.88;;;;;;;;;;4973516;28;20038;-82
2021/04/08 14:34:06;;;;;;;8.63;5.82;;;;;;;;;;4973503;28;20046;-82
2021/04/08 14:36:32;;;;;;;7.60;5.57;;;;;;;;;;4956790;28;20039;-83
2021/04/08 14:39:00;;;;;;;7.00;4.88;;;;;;;;;;4968707;28;20055;-83
2021/04/08 14:41:26;;;;;;;6.90;4.50;;;;;;;;;;4968980;28;20471;-82
2021/04/08 14:43:52;;;;;;;7.05;4.35;;;;;;;;;;4954026;29;20042;-82
2021/04/08 14:46:18;;;;;;;4.85;3.70;;;;;;;;;;4954162;29;20039;-82
2021/04/08 14:48:45;;;;;;;5.35;3.95;;;;;;;;;;4953997;29;20118;-82